createdAt,value
2023-03-31T00:00:04.897Z,26.00
2023-03-31T00:01:03.936Z,28.21
2023-03-31T00:02:04.994Z,28.89
2023-03-31T00:03:05.131Z,26.38
2023-03-31T00:04:05.653Z,28.09
2023-03-31T00:05:05.204Z,29.95
2023-03-31T00:06:05.384Z,28.08
2023-03-31T00:07:05.303Z,29.61
2023-03-31T00:08:05.366Z,26.06
2023-03-31T00:09:05.422Z,26.88
2023-03-31T00:10:17.197Z,31.14
2023-03-31T00:11:05.477Z,31.37
2023-03-31T00:12:05.456Z,31.71
2023-03-31T00:13:05.482Z,31.00
2023-03-31T00:14:05.465Z,28.52
2023-03-31T00:15:05.436Z,27.13
2023-03-31T00:16:05.677Z,29.37
2023-03-31T00:17:05.449Z,27.66
2023-03-31T00:18:04.528Z,28.37
2023-03-31T00:19:05.466Z,28.77
2023-03-31T00:20:04.425Z,31.16
2023-03-31T00:21:04.413Z,30.88
2023-03-31T00:22:05.483Z,30.69
2023-03-31T00:23:04.391Z,30.26
2023-03-31T00:24:05.390Z,28.65
2023-03-31T00:25:05.369Z,29.68
2023-03-31T00:26:05.577Z,26.57
2023-03-31T00:27:05.344Z,30.90
2023-03-31T00:28:05.360Z,27.86
2023-03-31T00:29:04.423Z,30.16
2023-03-31T00:30:05.343Z,31.19
2023-03-31T00:31:05.324Z,29.76
2023-03-31T00:32:05.346Z,30.85
2023-03-31T00:33:05.370Z,30.59
2023-03-31T00:34:05.415Z,32.20
2023-03-31T00:35:05.464Z,29.39
2023-03-31T00:36:05.837Z,29.04
2023-03-31T00:37:05.611Z,30.73
2023-03-31T00:38:05.651Z,32.86
2023-03-31T00:39:05.700Z,28.70
2023-03-31T00:40:05.775Z,29.77
2023-03-31T00:41:04.836Z,26.78
2023-03-31T00:42:05.889Z,26.88
2023-03-31T00:43:06.005Z,28.17
2023-03-31T00:44:06.004Z,28.18
2023-03-31T00:45:06.091Z,31.93
2023-03-31T00:46:06.207Z,29.15
2023-03-31T00:47:06.158Z,30.10
2023-03-31T00:48:06.285Z,31.74
2023-03-31T00:49:06.264Z,30.94
2023-03-31T00:50:05.341Z,30.18
2023-03-31T00:51:06.385Z,32.59
2023-03-31T00:52:06.449Z,29.59
2023-03-31T00:53:05.534Z,28.93
2023-03-31T00:54:05.597Z,27.30
2023-03-31T00:55:06.642Z,28.38
2023-03-31T00:56:07.033Z,28.25
2023-03-31T00:57:05.810Z,27.60
2023-03-31T00:58:05.822Z,29.42
2023-03-31T00:59:06.884Z,27.68
2023-03-31T01:00:05.909Z,28.59
2023-03-31T01:01:06.987Z,29.25
2023-03-31T01:02:06.976Z,28.62
2023-03-31T01:03:07.113Z,25.39
2023-03-31T01:04:07.119Z,29.98
2023-03-31T01:05:06.119Z,31.22
2023-03-31T01:06:06.329Z,30.60
2023-03-31T01:07:06.181Z,31.19
2023-03-31T01:08:07.229Z,25.45
2023-03-31T01:09:07.278Z,28.49
2023-03-31T01:10:07.330Z,30.68
2023-03-31T01:11:06.388Z,28.17
2023-03-31T01:12:07.431Z,28.45
2023-03-31T01:13:06.478Z,29.99
2023-03-31T01:14:07.539Z,30.67
2023-03-31T01:15:07.600Z,28.55
2023-03-31T01:16:07.783Z,31.71
2023-03-31T01:17:07.846Z,29.84
2023-03-31T01:18:07.820Z,29.91
2023-03-31T01:19:07.818Z,31.53
2023-03-31T01:20:07.890Z,32.43
2023-03-31T01:21:07.986Z,31.42
2023-03-31T01:22:07.004Z,26.46
2023-03-31T01:23:08.070Z,28.75
2023-03-31T01:24:08.145Z,26.06
2023-03-31T01:25:07.200Z,27.84
2023-03-31T01:26:08.369Z,28.45
2023-03-31T01:27:07.311Z,28.40
2023-03-31T01:28:08.354Z,28.06
2023-03-31T01:29:08.425Z,31.16
2023-03-31T01:30:08.497Z,29.73
2023-03-31T01:31:07.644Z,27.70
2023-03-31T01:32:08.610Z,29.84
2023-03-31T01:33:08.762Z,30.56
2023-03-31T01:34:07.720Z,28.81
2023-03-31T01:35:08.807Z,29.48
2023-03-31T01:36:09.052Z,30.13
2023-03-31T01:37:08.907Z,29.02
2023-03-31T01:38:08.974Z,29.76
2023-03-31T01:39:08.040Z,28.68
2023-03-31T01:40:09.108Z,25.26
2023-03-31T01:41:08.159Z,26.68
2023-03-31T01:42:08.231Z,33.41
2023-03-31T01:43:09.290Z,30.16
2023-03-31T01:44:09.331Z,28.58
2023-03-31T01:45:08.441Z,31.71
2023-03-31T01:46:09.595Z,30.12
2023-03-31T01:47:09.559Z,29.85
2023-03-31T01:48:08.643Z,27.66
2023-03-31T01:49:09.677Z,29.04
2023-03-31T01:50:09.770Z,31.25
2023-03-31T01:51:08.792Z,29.17
2023-03-31T01:52:08.893Z,30.35
2023-03-31T01:53:08.892Z,29.69
2023-03-31T01:54:09.962Z,28.39
2023-03-31T01:55:09.037Z,30.18
2023-03-31T01:56:10.082Z,26.34
2023-03-31T01:57:10.167Z,29.35
2023-03-31T01:58:10.207Z,29.46
2023-03-31T01:59:10.255Z,28.83
2023-03-31T02:00:10.295Z,28.12
2023-03-31T02:01:10.337Z,29.13
2023-03-31T02:02:10.436Z,26.73
2023-03-31T02:03:09.532Z,24.81
2023-03-31T02:04:09.484Z,29.79
2023-03-31T02:05:10.558Z,29.86
2023-03-31T02:06:09.606Z,30.04
2023-03-31T02:07:10.649Z,28.90
2023-03-31T02:08:10.684Z,32.54
2023-03-31T02:09:10.729Z,30.03
2023-03-31T02:10:10.780Z,29.85
2023-03-31T02:11:10.837Z,27.71
2023-03-31T02:12:10.884Z,27.73
2023-03-31T02:13:10.948Z,25.00
2023-03-31T02:14:10.006Z,28.50
2023-03-31T02:15:11.056Z,29.94
2023-03-31T02:16:11.164Z,27.44
2023-03-31T02:17:10.186Z,31.00
2023-03-31T02:18:11.500Z,33.80
2023-03-31T02:19:11.324Z,29.02
2023-03-31T02:20:11.418Z,29.59
2023-03-31T02:21:11.478Z,27.27
2023-03-31T02:22:10.495Z,28.80
2023-03-31T02:23:11.566Z,28.95
2023-03-31T02:24:11.624Z,27.97
2023-03-31T02:25:11.698Z,29.13
2023-03-31T02:26:11.760Z,28.94
2023-03-31T02:27:10.807Z,29.24
2023-03-31T02:28:11.866Z,28.60
2023-03-31T02:29:11.957Z,28.75
2023-03-31T02:30:11.984Z,27.79
2023-03-31T02:31:12.084Z,26.35
2023-03-31T02:32:12.090Z,30.89
2023-03-31T02:33:11.148Z,26.98
2023-03-31T02:34:12.204Z,28.89
2023-03-31T02:35:12.282Z,28.41
2023-03-31T02:36:11.400Z,31.37
2023-03-31T02:37:12.420Z,30.24
2023-03-31T02:38:12.458Z,30.15
2023-03-31T02:39:12.521Z,27.75
2023-03-31T02:40:12.596Z,29.92
2023-03-31T02:41:11.665Z,28.89
2023-03-31T02:42:12.732Z,30.21
2023-03-31T02:43:11.803Z,25.03
2023-03-31T02:44:12.840Z,31.82
2023-03-31T02:45:12.889Z,26.95
2023-03-31T02:46:12.991Z,27.92
2023-03-31T02:47:13.060Z,31.05
2023-03-31T02:48:13.106Z,31.30
2023-03-31T02:49:12.165Z,29.02
2023-03-31T02:50:13.218Z,28.05
2023-03-31T02:51:13.269Z,30.37
2023-03-31T02:52:12.311Z,28.37
2023-03-31T02:53:13.390Z,28.97
2023-03-31T02:54:13.474Z,27.37
2023-03-31T02:55:13.500Z,27.66
2023-03-31T02:56:13.559Z,30.95
2023-03-31T02:57:13.628Z,31.44
2023-03-31T02:58:12.672Z,26.30
2023-03-31T02:59:13.716Z,28.34
2023-03-31T03:00:13.819Z,27.55
2023-03-31T03:01:12.930Z,26.19
2023-03-31T03:02:13.949Z,25.58
2023-03-31T03:03:13.081Z,27.09
2023-03-31T03:04:14.025Z,29.58
2023-03-31T03:05:13.205Z,30.04
2023-03-31T03:06:14.178Z,29.89
2023-03-31T03:07:13.198Z,28.83
2023-03-31T03:08:14.281Z,26.46
2023-03-31T03:09:13.363Z,29.10
2023-03-31T03:10:14.403Z,25.76
2023-03-31T03:11:14.462Z,28.01
2023-03-31T03:12:13.509Z,30.09
2023-03-31T03:13:14.573Z,28.03
2023-03-31T03:14:14.640Z,30.01
2023-03-31T03:15:13.661Z,30.55
2023-03-31T03:16:14.721Z,28.55
2023-03-31T03:17:14.754Z,30.36
2023-03-31T03:18:14.814Z,29.05
2023-03-31T03:19:14.883Z,30.21
2023-03-31T03:20:14.927Z,29.41
2023-03-31T03:21:14.937Z,28.32
2023-03-31T03:22:14.992Z,28.50
2023-03-31T03:23:15.009Z,27.27
2023-03-31T03:24:14.047Z,26.44
2023-03-31T03:25:15.132Z,26.05
2023-03-31T03:26:14.156Z,27.40
2023-03-31T03:27:14.201Z,29.90
2023-03-31T03:28:15.229Z,28.50
2023-03-31T03:29:15.288Z,26.23
2023-03-31T03:30:15.324Z,27.56
2023-03-31T03:31:15.399Z,30.79
2023-03-31T03:32:15.470Z,29.43
2023-03-31T03:33:16.011Z,27.54
2023-03-31T03:34:14.559Z,29.12
2023-03-31T03:35:15.607Z,26.78
2023-03-31T03:36:15.711Z,28.07
2023-03-31T03:37:15.734Z,27.81
2023-03-31T03:38:15.768Z,28.42
2023-03-31T03:39:15.812Z,29.01
2023-03-31T03:40:14.833Z,25.95
2023-03-31T03:41:15.882Z,30.18
2023-03-31T03:42:15.889Z,26.24
2023-03-31T03:43:15.876Z,25.75
2023-03-31T03:44:15.877Z,28.72
2023-03-31T03:45:15.898Z,25.29
2023-03-31T03:46:15.923Z,29.81
2023-03-31T03:47:15.925Z,27.45
2023-03-31T03:48:15.965Z,28.85
2023-03-31T03:49:15.982Z,30.93
2023-03-31T03:50:16.503Z,28.25
2023-03-31T03:51:15.030Z,31.43
2023-03-31T03:52:16.042Z,33.33
2023-03-31T03:53:16.066Z,31.95
2023-03-31T03:54:16.077Z,29.63
2023-03-31T03:55:16.097Z,32.98
2023-03-31T03:56:16.129Z,31.91
2023-03-31T03:57:15.268Z,30.15
2023-03-31T03:58:16.211Z,29.21
2023-03-31T03:59:16.238Z,28.00
2023-03-31T04:00:16.299Z,28.23
2023-03-31T04:01:16.304Z,26.90
2023-03-31T04:02:15.362Z,28.86
2023-03-31T04:03:16.446Z,28.76
2023-03-31T04:04:15.409Z,26.70
2023-03-31T04:05:16.466Z,27.07
2023-03-31T04:06:16.474Z,29.89
2023-03-31T04:07:16.483Z,26.92
2023-03-31T04:08:15.540Z,26.46
2023-03-31T04:09:16.584Z,29.54
2023-03-31T04:10:16.604Z,28.31
2023-03-31T04:11:18.699Z,27.03
2023-03-31T04:12:16.629Z,29.52
2023-03-31T04:13:15.628Z,29.32
2023-03-31T04:14:15.612Z,26.56
2023-03-31T04:15:15.608Z,30.40
2023-03-31T04:16:15.652Z,28.90
2023-03-31T04:17:16.575Z,26.88
2023-03-31T04:18:16.576Z,28.17
2023-03-31T04:19:16.572Z,27.30
2023-03-31T04:20:16.567Z,29.23
2023-03-31T04:21:16.566Z,30.14
2023-03-31T04:22:16.543Z,30.06
2023-03-31T04:23:16.531Z,28.47
2023-03-31T04:24:16.536Z,30.92
2023-03-31T04:25:16.739Z,28.01
2023-03-31T04:26:16.527Z,28.45
2023-03-31T04:27:16.504Z,28.46
2023-03-31T04:28:16.498Z,29.83
2023-03-31T04:29:16.574Z,34.98
2023-03-31T04:30:15.510Z,29.56
2023-03-31T04:31:15.599Z,28.50
2023-03-31T04:32:16.485Z,26.21
2023-03-31T04:33:16.459Z,26.91
2023-03-31T04:34:16.452Z,31.61
2023-03-31T04:35:16.443Z,30.98
2023-03-31T04:36:16.493Z,25.00
2023-03-31T04:37:16.445Z,29.66
2023-03-31T04:38:16.444Z,29.78
2023-03-31T04:39:16.434Z,28.65
2023-03-31T04:40:16.441Z,30.82
2023-03-31T04:41:16.416Z,32.81
2023-03-31T04:42:16.487Z,29.95
2023-03-31T04:43:16.507Z,29.83
2023-03-31T04:44:15.576Z,32.10
2023-03-31T04:45:16.633Z,27.56
2023-03-31T04:46:16.748Z,27.00
2023-03-31T04:47:16.743Z,26.99
2023-03-31T04:48:16.790Z,28.99
2023-03-31T04:49:16.882Z,29.50
2023-03-31T04:50:17.134Z,28.45
2023-03-31T04:51:16.981Z,29.55
2023-03-31T04:52:16.022Z,28.73
2023-03-31T04:53:17.077Z,29.69
2023-03-31T04:54:17.122Z,28.13
2023-03-31T04:55:16.187Z,26.69
2023-03-31T04:56:17.231Z,27.87
2023-03-31T04:57:17.368Z,30.78
2023-03-31T04:58:17.322Z,30.62
2023-03-31T04:59:17.386Z,29.89
2023-03-31T05:00:16.430Z,32.30
2023-03-31T05:01:17.532Z,27.16
2023-03-31T05:02:17.599Z,31.15
2023-03-31T05:03:17.832Z,28.20
2023-03-31T05:04:16.664Z,25.81
2023-03-31T05:05:17.687Z,28.73
2023-03-31T05:06:17.772Z,28.84
2023-03-31T05:07:17.798Z,31.16
2023-03-31T05:08:17.848Z,30.54
2023-03-31T05:09:16.876Z,30.62
2023-03-31T05:10:17.907Z,28.42
2023-03-31T05:11:16.927Z,29.49
2023-03-31T05:12:17.982Z,31.31
2023-03-31T05:13:18.003Z,28.35
2023-03-31T05:14:18.053Z,28.71
2023-03-31T05:15:17.074Z,27.54
2023-03-31T05:16:17.218Z,26.65
2023-03-31T05:17:18.102Z,28.56
2023-03-31T05:18:17.089Z,27.44
2023-03-31T05:19:17.078Z,27.26
2023-03-31T05:20:18.086Z,25.00
2023-03-31T05:21:17.091Z,33.94
2023-03-31T05:22:18.076Z,29.85
2023-03-31T05:23:18.063Z,34.09
2023-03-31T05:24:18.099Z,34.38
2023-03-31T05:25:18.072Z,31.59
2023-03-31T05:26:17.088Z,29.06
2023-03-31T05:27:18.055Z,29.13
2023-03-31T05:28:18.127Z,31.29
2023-03-31T05:29:18.097Z,29.45
2023-03-31T05:30:18.067Z,29.00
2023-03-31T05:31:18.083Z,30.96
2023-03-31T05:32:18.072Z,29.25
2023-03-31T05:33:18.284Z,31.14
2023-03-31T05:34:18.207Z,29.79
2023-03-31T05:35:18.289Z,29.59
2023-03-31T05:36:18.378Z,31.96
2023-03-31T05:37:18.336Z,30.72
2023-03-31T05:38:18.429Z,30.10
2023-03-31T05:39:18.484Z,30.94
2023-03-31T05:40:17.542Z,30.49
2023-03-31T05:41:18.605Z,33.60
2023-03-31T05:42:18.584Z,35.81
2023-03-31T05:43:18.636Z,35.24
2023-03-31T05:44:18.571Z,36.15
2023-03-31T05:45:18.580Z,34.08
2023-03-31T05:46:17.575Z,36.69
2023-03-31T05:47:18.556Z,36.02
2023-03-31T05:48:18.574Z,37.71
2023-03-31T05:49:18.869Z,38.47
2023-03-31T05:50:18.524Z,39.97
2023-03-31T05:51:18.530Z,41.31
2023-03-31T05:52:18.958Z,43.26
2023-03-31T05:53:18.547Z,42.72
2023-03-31T05:54:17.507Z,41.59
2023-03-31T05:55:18.505Z,48.30
2023-03-31T05:56:18.517Z,50.96
2023-03-31T05:57:18.578Z,57.90
2023-03-31T05:58:18.493Z,55.15
2023-03-31T05:59:18.475Z,51.59
2023-03-31T06:00:18.485Z,51.54
2023-03-31T06:02:18.025Z,57.24
2023-03-31T06:03:17.504Z,57.79
2023-03-31T06:04:17.485Z,54.42
2023-03-31T06:05:17.501Z,56.62
2023-03-31T06:06:18.441Z,61.21
2023-03-31T06:07:18.422Z,60.99
2023-03-31T06:08:18.460Z,57.56
2023-03-31T06:09:18.404Z,58.62
2023-03-31T06:10:18.402Z,58.05
2023-03-31T06:11:18.476Z,60.35
2023-03-31T06:12:18.547Z,61.10
2023-03-31T06:13:18.552Z,61.42
2023-03-31T06:14:18.566Z,64.59
2023-03-31T06:15:18.639Z,57.97
2023-03-31T06:16:18.746Z,61.39
2023-03-31T06:17:18.792Z,60.94
2023-03-31T06:18:18.806Z,60.07
2023-03-31T06:19:17.892Z,60.19
2023-03-31T06:20:27.763Z,58.97
2023-03-31T06:21:18.955Z,59.17
2023-03-31T06:22:17.993Z,59.86
2023-03-31T06:23:17.911Z,59.37
2023-03-31T06:24:17.910Z,61.14
2023-03-31T06:25:18.943Z,60.26
2023-03-31T06:26:17.888Z,60.25
2023-03-31T06:27:18.935Z,58.35
2023-03-31T06:28:18.862Z,55.86
2023-03-31T06:29:17.854Z,56.78
2023-03-31T06:30:18.907Z,58.12
2023-03-31T06:31:18.899Z,58.24
2023-03-31T06:32:18.884Z,58.64
2023-03-31T06:33:18.911Z,57.47
2023-03-31T06:34:20.852Z,60.36
2023-03-31T06:35:18.910Z,60.42
2023-03-31T06:36:18.883Z,61.03
2023-03-31T06:37:17.857Z,60.98
2023-03-31T06:38:18.862Z,60.19
2023-03-31T06:39:18.886Z,61.98
2023-03-31T06:40:17.804Z,60.78
2023-03-31T06:41:18.776Z,61.64
2023-03-31T06:42:17.804Z,61.73
2023-03-31T06:43:18.765Z,59.99
2023-03-31T06:44:18.796Z,58.70
2023-03-31T06:45:17.760Z,58.98
2023-03-31T06:46:18.828Z,57.68
2023-03-31T06:47:18.991Z,60.32
2023-03-31T06:48:18.799Z,58.58
2023-03-31T06:49:18.964Z,56.39
2023-03-31T06:50:18.721Z,57.17
2023-03-31T06:51:18.715Z,57.64
2023-03-31T06:52:19.029Z,56.98
2023-03-31T06:53:18.768Z,59.17
2023-03-31T06:54:18.716Z,59.44
2023-03-31T06:55:18.692Z,58.76
2023-03-31T06:56:17.742Z,57.71
2023-03-31T06:57:19.027Z,56.80
2023-03-31T06:58:17.833Z,57.99
2023-03-31T06:59:17.900Z,53.55
2023-03-31T07:00:21.516Z,55.95
2023-03-31T07:01:18.976Z,56.15
2023-03-31T07:02:17.943Z,54.51
2023-03-31T07:03:19.382Z,56.04
2023-03-31T07:04:17.909Z,53.91
2023-03-31T07:05:17.886Z,49.64
2023-03-31T07:06:17.887Z,49.75
2023-03-31T07:07:18.917Z,48.67
2023-03-31T07:08:18.901Z,45.78
2023-03-31T07:09:18.914Z,46.49
2023-03-31T07:10:18.940Z,45.48
2023-03-31T07:11:21.056Z,49.08
2023-03-31T07:12:18.943Z,49.46
2023-03-31T07:13:17.941Z,47.26
2023-03-31T07:14:18.967Z,44.72
2023-03-31T07:15:18.954Z,44.78
2023-03-31T07:16:18.009Z,45.20
2023-03-31T07:17:18.957Z,47.52
2023-03-31T07:18:18.927Z,42.93
2023-03-31T07:19:17.907Z,41.20
2023-03-31T07:20:18.917Z,43.97
2023-03-31T07:21:18.949Z,40.76
2023-03-31T07:22:17.893Z,40.70
2023-03-31T07:23:19.045Z,39.92
2023-03-31T07:24:17.876Z,42.96
2023-03-31T07:25:18.872Z,44.52
2023-03-31T07:26:18.847Z,40.23
2023-03-31T07:27:18.843Z,41.27
2023-03-31T07:28:18.843Z,41.21
2023-03-31T07:29:18.852Z,42.86
2023-03-31T07:30:18.856Z,42.60
2023-03-31T07:31:18.848Z,38.15
2023-03-31T07:32:17.914Z,38.55
2023-03-31T07:33:17.818Z,38.51
2023-03-31T07:34:18.780Z,38.46
2023-03-31T07:35:18.821Z,40.98
2023-03-31T07:36:18.946Z,38.64
2023-03-31T07:37:17.776Z,36.79
2023-03-31T07:38:18.771Z,38.20
2023-03-31T07:39:17.747Z,38.20
2023-03-31T07:40:17.743Z,37.67
2023-03-31T07:41:18.783Z,40.10
2023-03-31T07:42:18.749Z,36.03
2023-03-31T07:43:18.753Z,38.72
2023-03-31T07:44:18.792Z,38.53
2023-03-31T07:45:18.862Z,40.42
2023-03-31T07:46:18.914Z,38.62
2023-03-31T07:47:19.055Z,41.02
2023-03-31T07:48:19.725Z,58.07
2023-03-31T07:49:19.035Z,69.67
2023-03-31T07:50:19.114Z,98.40
2023-03-31T07:51:19.130Z,98.40
2023-03-31T07:52:19.529Z,103.07
2023-03-31T07:53:19.132Z,105.65
2023-03-31T07:54:19.121Z,106.05
2023-03-31T07:55:18.136Z,104.67
2023-03-31T07:56:19.141Z,104.17
2023-03-31T07:57:19.205Z,107.30
2023-03-31T07:58:18.177Z,109.01
2023-03-31T07:59:19.223Z,110.40
2023-03-31T08:00:19.269Z,115.12
2023-03-31T08:01:19.254Z,113.98
2023-03-31T08:02:18.311Z,115.05
2023-03-31T08:03:19.488Z,119.46
2023-03-31T08:04:19.485Z,122.72
2023-03-31T08:05:19.491Z,123.50
2023-03-31T08:06:18.523Z,125.46
2023-03-31T08:07:29.038Z,130.02
2023-03-31T08:08:19.570Z,130.65
2023-03-31T08:09:18.546Z,131.88
2023-03-31T08:10:19.556Z,135.14
2023-03-31T08:11:19.566Z,137.39
2023-03-31T08:12:19.598Z,145.18
2023-03-31T08:13:19.793Z,146.18
2023-03-31T08:14:27.215Z,148.54
2023-03-31T08:15:19.522Z,148.88
2023-03-31T08:16:19.568Z,149.80
2023-03-31T08:17:18.510Z,151.47
2023-03-31T08:18:19.538Z,154.61
2023-03-31T08:19:19.486Z,163.33
2023-03-31T08:20:19.517Z,159.89
2023-03-31T08:21:20.646Z,162.35
2023-03-31T08:22:19.471Z,162.69
2023-03-31T08:23:19.469Z,164.17
2023-03-31T08:24:19.488Z,166.48
2023-03-31T08:25:19.496Z,170.98
2023-03-31T08:26:19.460Z,175.28
2023-03-31T08:27:19.452Z,177.94
2023-03-31T08:28:19.448Z,177.92
2023-03-31T08:29:19.440Z,185.47
2023-03-31T08:30:19.409Z,188.35
2023-03-31T08:31:18.421Z,189.44
2023-03-31T08:32:19.398Z,191.54
2023-03-31T08:33:19.400Z,190.85
2023-03-31T08:34:19.385Z,190.31
2023-03-31T08:35:19.383Z,192.10
2023-03-31T08:36:18.446Z,193.69
2023-03-31T08:37:19.363Z,194.56
2023-03-31T08:38:18.351Z,196.37
2023-03-31T08:39:19.358Z,201.62
2023-03-31T08:40:19.333Z,203.00
2023-03-31T08:41:19.344Z,207.33
2023-03-31T08:42:19.350Z,206.74
2023-03-31T08:43:19.567Z,215.55
2023-03-31T08:44:19.360Z,208.71
2023-03-31T08:45:19.355Z,146.69
2023-03-31T08:46:19.340Z,84.49
2023-03-31T08:47:19.305Z,60.46
2023-03-31T08:48:18.333Z,39.35
2023-03-31T08:49:19.283Z,37.45
2023-03-31T08:50:19.293Z,31.65
2023-03-31T08:51:19.323Z,34.81
2023-03-31T08:52:18.316Z,33.12
2023-03-31T08:53:18.276Z,29.20
2023-03-31T08:54:19.241Z,32.72
2023-03-31T08:55:19.236Z,44.76
2023-03-31T08:56:19.246Z,52.05
2023-03-31T08:57:19.276Z,41.59
2023-03-31T08:58:19.550Z,16.12
2023-03-31T08:59:19.231Z,35.83
2023-03-31T09:00:19.249Z,44.88
2023-03-31T09:01:18.335Z,61.22
2023-03-31T09:02:19.391Z,67.47
2023-03-31T09:03:19.295Z,72.82
2023-03-31T09:04:19.327Z,82.06
2023-03-31T09:05:18.172Z,84.87
2023-03-31T09:06:18.299Z,90.24
2023-03-31T09:07:18.200Z,94.47
2023-03-31T09:08:19.155Z,101.17
2023-03-31T09:09:19.159Z,111.22
2023-03-31T09:10:18.135Z,111.01
2023-03-31T09:11:19.148Z,115.15
2023-03-31T09:12:19.145Z,114.65
2023-03-31T09:13:19.162Z,119.69
2023-03-31T09:14:19.127Z,116.91
2023-03-31T09:15:18.143Z,119.27
2023-03-31T09:16:18.162Z,119.32
2023-03-31T09:17:19.114Z,121.10
2023-03-31T09:18:19.130Z,127.59
2023-03-31T09:19:19.119Z,133.31
2023-03-31T09:20:19.128Z,136.54
2023-03-31T09:21:19.156Z,141.10
2023-03-31T09:22:19.137Z,144.10
2023-03-31T09:23:19.144Z,148.68
2023-03-31T09:24:19.157Z,152.49
2023-03-31T09:25:19.140Z,155.50
2023-03-31T09:26:19.127Z,152.27
2023-03-31T09:27:19.131Z,162.82
2023-03-31T09:28:19.149Z,159.44
2023-03-31T09:29:19.170Z,163.43
2023-03-31T09:30:18.168Z,167.43
2023-03-31T09:31:19.299Z,162.40
2023-03-31T09:32:19.266Z,168.96
2023-03-31T09:33:19.336Z,168.82
2023-03-31T09:34:19.292Z,170.40
2023-03-31T09:35:19.311Z,176.53
2023-03-31T09:36:18.377Z,180.35
2023-03-31T09:37:19.322Z,181.29
2023-03-31T09:38:19.390Z,182.72
2023-03-31T09:39:19.440Z,186.65
2023-03-31T09:40:19.604Z,193.22
2023-03-31T09:41:19.552Z,193.21
2023-03-31T09:42:19.632Z,190.95
2023-03-31T09:43:18.695Z,195.86
2023-03-31T09:44:19.720Z,192.84
2023-03-31T09:45:19.776Z,198.78
2023-03-31T09:46:20.158Z,204.89
2023-03-31T09:47:20.573Z,191.88
2023-03-31T09:48:20.078Z,188.66
2023-03-31T09:49:20.053Z,174.84
2023-03-31T09:50:20.067Z,152.29
2023-03-31T09:51:20.036Z,152.38
2023-03-31T09:52:19.983Z,142.05
2023-03-31T09:53:20.069Z,124.99
2023-03-31T09:54:18.975Z,129.50
2023-03-31T09:55:32.023Z,128.78
2023-03-31T09:56:19.945Z,149.97
2023-03-31T09:57:19.983Z,148.63
2023-03-31T09:58:19.970Z,145.84
2023-03-31T09:59:19.937Z,141.53
2023-03-31T10:00:18.952Z,141.49
2023-03-31T10:01:19.944Z,131.83
2023-03-31T10:02:19.916Z,132.16
2023-03-31T10:03:19.929Z,133.81
2023-03-31T10:04:19.105Z,122.87
2023-03-31T10:05:19.932Z,122.94
2023-03-31T10:06:19.904Z,119.59
2023-03-31T10:07:19.886Z,113.80
2023-03-31T10:08:18.896Z,118.47
2023-03-31T10:09:19.909Z,119.57
2023-03-31T10:10:19.999Z,121.49
2023-03-31T10:11:19.855Z,111.90
2023-03-31T10:12:18.850Z,107.90
2023-03-31T10:13:19.863Z,108.92
2023-03-31T10:14:18.863Z,108.45
2023-03-31T10:15:19.814Z,113.25
2023-03-31T10:16:19.831Z,115.38
2023-03-31T10:17:18.801Z,113.64
2023-03-31T10:18:19.876Z,112.94
2023-03-31T10:19:19.817Z,114.94
2023-03-31T10:20:18.848Z,112.83
2023-03-31T10:21:19.813Z,113.73
2023-03-31T10:22:19.770Z,115.86
2023-03-31T10:23:18.777Z,116.10
2023-03-31T10:24:19.800Z,113.38
2023-03-31T10:25:19.857Z,114.01
2023-03-31T10:26:18.863Z,105.96
2023-03-31T10:27:19.992Z,110.61
2023-03-31T10:28:20.031Z,110.80
2023-03-31T10:29:19.970Z,114.51
2023-03-31T10:30:19.997Z,115.29
2023-03-31T10:31:20.070Z,110.85
2023-03-31T10:32:20.058Z,113.54
2023-03-31T10:33:23.227Z,115.14
2023-03-31T10:34:20.110Z,115.47
2023-03-31T10:35:19.126Z,115.87
2023-03-31T10:36:20.104Z,116.59
2023-03-31T10:37:19.095Z,118.00
2023-03-31T10:38:20.092Z,116.55
2023-03-31T10:39:20.042Z,118.92
2023-03-31T10:40:20.053Z,119.95
2023-03-31T10:41:20.051Z,120.53
2023-03-31T10:42:19.037Z,117.93
2023-03-31T10:43:19.083Z,36.92
2023-03-31T10:44:20.016Z,43.67
2023-03-31T10:45:33.577Z,43.24
2023-03-31T10:46:20.026Z,43.87
2023-03-31T10:47:20.580Z,24.51
2023-03-31T10:48:20.064Z,4.13
2023-03-31T10:49:19.992Z,1.26
2023-03-31T10:50:19.994Z,0.00
2023-03-31T10:51:19.992Z,23.43
2023-03-31T10:52:19.960Z,25.12
2023-03-31T10:53:18.970Z,25.00
2023-03-31T10:54:19.957Z,25.00
2023-03-31T10:55:19.935Z,41.64
2023-03-31T10:56:18.922Z,29.91
2023-03-31T10:57:19.984Z,32.56
2023-03-31T10:58:19.907Z,26.09
2023-03-31T10:59:19.910Z,24.83
2023-03-31T11:00:18.945Z,24.99
2023-03-31T11:01:18.998Z,56.44
2023-03-31T11:02:19.915Z,61.16
2023-03-31T11:03:19.980Z,70.48
2023-03-31T11:04:19.893Z,86.54
2023-03-31T11:05:19.873Z,80.74
2023-03-31T11:06:19.863Z,68.86
2023-03-31T11:07:19.863Z,74.01
2023-03-31T11:08:20.269Z,71.12
2023-03-31T11:09:19.895Z,74.65
2023-03-31T11:10:18.848Z,66.46
2023-03-31T11:11:18.822Z,33.92
2023-03-31T11:12:19.833Z,23.74
2023-03-31T11:13:19.826Z,25.00
2023-03-31T11:14:19.805Z,30.00
2023-03-31T11:15:19.865Z,43.30
2023-03-31T11:16:19.068Z,35.47
2023-03-31T11:17:20.054Z,49.56
2023-03-31T11:18:19.999Z,67.91
2023-03-31T11:19:20.027Z,69.02
2023-03-31T11:20:20.041Z,79.00
2023-03-31T11:21:20.062Z,79.38
2023-03-31T11:22:20.099Z,78.36
2023-03-31T11:23:20.123Z,70.09
2023-03-31T11:24:19.141Z,57.79
2023-03-31T11:25:20.166Z,71.21
2023-03-31T11:26:20.176Z,84.23
2023-03-31T11:27:19.207Z,77.78
2023-03-31T11:28:20.272Z,102.15
2023-03-31T11:29:20.247Z,111.61
2023-03-31T11:30:20.272Z,122.28
2023-03-31T11:31:20.326Z,125.08
2023-03-31T11:32:20.388Z,127.37
2023-03-31T11:33:20.297Z,133.70
2023-03-31T11:34:20.340Z,137.69
2023-03-31T11:35:20.327Z,139.88
2023-03-31T11:36:20.475Z,149.00
2023-03-31T11:37:20.403Z,151.63
2023-03-31T11:38:21.868Z,157.55
2023-03-31T11:39:19.440Z,157.59
2023-03-31T11:40:20.454Z,158.14
2023-03-31T11:41:20.468Z,157.26
2023-03-31T11:42:20.449Z,155.61
2023-03-31T11:43:20.453Z,162.38
2023-03-31T11:44:19.413Z,162.50
2023-03-31T11:45:20.389Z,160.96
2023-03-31T11:46:20.445Z,160.68
2023-03-31T11:47:20.404Z,161.83
2023-03-31T11:48:20.413Z,165.56
2023-03-31T11:49:19.375Z,165.03
2023-03-31T11:50:20.389Z,164.03
2023-03-31T11:51:19.347Z,162.97
2023-03-31T11:52:20.376Z,164.37
2023-03-31T11:53:20.345Z,165.89
2023-03-31T11:54:20.336Z,165.57
2023-03-31T11:55:20.328Z,161.45
2023-03-31T11:56:20.483Z,164.38
2023-03-31T11:57:20.462Z,166.06
2023-03-31T11:58:20.458Z,167.65
2023-03-31T11:59:20.511Z,166.06
2023-03-31T12:00:20.763Z,165.68
2023-03-31T12:01:20.638Z,167.49
2023-03-31T12:02:19.610Z,166.96
2023-03-31T12:03:19.833Z,167.58
2023-03-31T12:04:20.653Z,167.57
2023-03-31T12:05:20.814Z,168.66
2023-03-31T12:06:19.899Z,167.90
2023-03-31T12:07:20.763Z,169.11
2023-03-31T12:08:20.816Z,167.55
2023-03-31T12:09:20.750Z,169.38
2023-03-31T12:10:20.839Z,167.71
2023-03-31T12:11:20.780Z,171.29
2023-03-31T12:12:20.800Z,170.76
2023-03-31T12:13:20.815Z,171.65
2023-03-31T12:14:20.823Z,168.65
2023-03-31T12:15:20.823Z,169.29
2023-03-31T12:16:20.854Z,169.52
2023-03-31T12:17:19.910Z,167.41
2023-03-31T12:18:19.849Z,166.47
2023-03-31T12:19:20.838Z,170.30
2023-03-31T12:20:20.854Z,166.47
2023-03-31T12:21:20.819Z,168.14
2023-03-31T12:22:20.898Z,170.59
2023-03-31T12:23:20.843Z,169.22
2023-03-31T12:24:20.814Z,167.39
2023-03-31T12:25:20.839Z,168.47
2023-03-31T12:26:20.823Z,168.02
2023-03-31T12:27:23.628Z,167.36
2023-03-31T12:28:20.784Z,173.83
2023-03-31T12:29:20.884Z,171.64
2023-03-31T12:30:19.982Z,167.21
2023-03-31T12:31:20.804Z,170.86
2023-03-31T12:32:20.916Z,169.92
2023-03-31T12:33:20.750Z,170.91
2023-03-31T12:34:20.754Z,171.35
2023-03-31T12:35:20.736Z,172.93
2023-03-31T12:36:20.799Z,170.47
2023-03-31T12:37:20.752Z,171.27
2023-03-31T12:38:22.771Z,173.83
2023-03-31T12:39:19.708Z,174.03
2023-03-31T12:40:21.630Z,103.55
2023-03-31T12:41:19.716Z,72.52
2023-03-31T12:42:21.552Z,54.51
2023-03-31T12:43:19.692Z,68.39
2023-03-31T12:44:20.701Z,77.80
2023-03-31T12:45:20.698Z,70.98
2023-03-31T12:46:19.700Z,88.16